Nakhon Phanom, Thailand

5:25 PM ICT on September 30, 2016 (GMT +0700)
Nakhon Phanom | | Change Station

Elev 584 ft 17.38 °N, 104.64 °E | Updated 25 minutes ago

Thunderstorm
Thunderstorm
82 °F
Feels Like 91 °F
N
13
Wind Variable Wind from NE

Today
High -- | Low -- °F
--% Chance of Precip.
Yesterday
High -- | Low -- °F
Precip. -- in
Pressure 29.68 in
Visibility 3.7 miles
Clouds Few 1600 ft
Scattered Clouds 1800 ft
Mostly Cloudy 2200 ft
Heat Index 91 °F
Dew Point 77 °F
Humidity 84%
Rainfall 0.00 in
Snow Depth Not available.
5:51 AM 5:50 PM
Waning Crescent, 0% visible
METAR VTUW 301000Z 05011KT 360V070 6000 TS VCSH FEW016CB SCT018 BKN022 28/25 Q1005
Pressure 29.68 in
Visibility 3.7 miles
Clouds Few 1600 ft
Scattered Clouds 1800 ft
Mostly Cloudy 2200 ft
Heat Index 91 °F
Dew Point 77 °F
Humidity 84%
Rainfall 0.00 in
Snow Depth Not available.
5:51 AM 5:50 PM
Waning Crescent, 0% visible
METAR VTUW 301000Z 05011KT 360V070 6000 TS VCSH FEW016CB SCT018 BKN022 28/25 Q1005

10-Day Weather Forecast

No radar image for this location.
×

Almanac

Astronomy

Sep. 30, 2016 Rise Set
Actual Time
Civil Twilight
Nautical Twilight
Astronomical Twilight
Moon
Length of Visible Light
Length of Day
Tomorrow will be .
, % of the Moon is Illuminated

Today's Extremes

Country Highs Country Lows

Community

WunderPhotos

Upload Photos

1,942,687 photos uploaded!

WunderBlog® & News

Nearby

Air Quality

  Air Quality AQ Index Pollutant
Not available.

Snow Depth

Station Depth Elevation

Earthquake Activity

City Distance Mag. Time & Date
Minimum magnitude displayed is 2.5.

Coastal Water Temperatures

Place Temperature

Stations

Nearby Weather Stations

Station Location Temp. Windchill Dew Point Humidity Wind Precip. Elev Updated Type